createdAt,value
2022-12-15T00:04:01.960Z,48.70
2022-12-15T00:14:21.799Z,53.17
2022-12-15T00:24:41.705Z,50.08
2022-12-15T00:35:01.865Z,47.17
2022-12-15T00:45:03.159Z,45.53
2022-12-15T00:55:22.989Z,43.22
2022-12-15T01:05:43.049Z,44.03
2022-12-15T01:16:02.896Z,42.25
2022-12-15T01:26:04.223Z,45.15
2022-12-15T01:36:05.494Z,41.30
2022-12-15T01:46:06.748Z,44.92
2022-12-15T01:56:07.988Z,47.00
2022-12-15T02:06:09.410Z,46.70
2022-12-15T02:16:10.751Z,49.60
2022-12-15T02:26:12.101Z,46.55
2022-12-15T02:36:13.360Z,50.42
2022-12-15T02:46:14.686Z,48.03
2022-12-15T02:56:15.986Z,50.33
2022-12-15T03:06:17.447Z,46.05
2022-12-15T03:16:18.808Z,49.00
2022-12-15T03:26:20.079Z,46.78
2022-12-15T03:36:22.840Z,51.95
2022-12-15T03:46:24.139Z,47.63
2022-12-15T03:56:25.418Z,52.38
2022-12-15T04:06:26.696Z,53.85
2022-12-15T04:16:27.991Z,42.67
2022-12-15T04:26:48.173Z,47.90
2022-12-15T04:37:09.801Z,50.65
2022-12-15T04:47:29.685Z,47.47
2022-12-15T04:57:49.638Z,53.55
2022-12-15T05:08:09.617Z,50.88
2022-12-15T05:18:29.632Z,54.05
2022-12-15T05:28:49.612Z,58.83
2022-12-15T05:38:51.098Z,50.85
2022-12-15T05:48:52.393Z,50.78
2022-12-15T05:58:53.748Z,48.45
2022-12-15T06:08:55.088Z,55.13
2022-12-15T06:18:56.431Z,56.78
2022-12-15T06:28:57.739Z,59.13
2022-12-15T06:38:58.994Z,58.55
2022-12-15T06:49:00.247Z,55.40
2022-12-15T06:59:01.952Z,55.58
2022-12-15T07:09:03.385Z,56.20
2022-12-15T07:19:04.646Z,60.08
2022-12-15T07:29:05.930Z,55.90
2022-12-15T07:39:08.365Z,55.28
2022-12-15T07:49:09.721Z,58.13
2022-12-15T07:59:11.074Z,57.97
2022-12-15T08:09:12.388Z,59.90
2022-12-15T08:19:13.731Z,56.70
2022-12-15T08:29:49.474Z,71.32
2022-12-15T08:39:36.272Z,64.28
2022-12-15T08:49:37.547Z,59.22
2022-12-15T08:59:38.853Z,59.63
2022-12-15T09:09:40.126Z,59.40
2022-12-15T09:19:41.380Z,63.55
2022-12-15T09:29:42.643Z,58.22
2022-12-15T09:39:43.963Z,67.32
2022-12-15T09:49:45.401Z,64.95
2022-12-15T09:59:46.704Z,55.00
2022-12-15T10:09:49.337Z,63.92
2022-12-15T10:19:51.460Z,60.33
2022-12-15T10:29:52.796Z,61.15
2022-12-15T10:39:54.294Z,59.05
2022-12-15T10:49:55.808Z,56.45
2022-12-15T10:59:57.137Z,64.75
2022-12-15T11:09:58.388Z,60.40
2022-12-15T11:20:02.832Z,62.80
2022-12-15T11:30:04.673Z,67.18
2022-12-15T11:40:07.093Z,59.83
2022-12-15T11:50:08.375Z,57.90
2022-12-15T12:00:09.825Z,59.90
2022-12-15T12:10:11.106Z,53.88
2022-12-15T12:20:12.353Z,60.08
2022-12-15T12:30:13.626Z,58.00
2022-12-15T12:40:15.581Z,56.20
2022-12-15T12:50:16.918Z,58.80
2022-12-15T13:00:18.406Z,67.65
2022-12-15T13:10:19.770Z,73.28
2022-12-15T13:20:21.039Z,79.18
2022-12-15T13:30:22.306Z,79.13
2022-12-15T13:40:24.193Z,81.93
2022-12-15T13:50:25.458Z,79.97
2022-12-15T14:00:26.706Z,80.40
2022-12-15T14:10:28.006Z,81.47
2022-12-15T14:20:29.255Z,82.85
2022-12-15T14:30:30.893Z,88.55
2022-12-15T14:40:32.163Z,89.65
2022-12-15T14:50:33.842Z,92.97
2022-12-15T15:00:35.107Z,97.38
2022-12-15T15:10:36.394Z,92.57
2022-12-15T15:20:37.814Z,96.00
2022-12-15T15:30:39.525Z,91.07
2022-12-15T15:40:40.824Z,92.88
2022-12-15T15:50:42.076Z,94.45
2022-12-15T16:00:43.485Z,80.95
2022-12-15T16:10:45.388Z,85.68
2022-12-15T16:20:46.630Z,86.78
2022-12-15T16:30:48.004Z,84.25
2022-12-15T16:40:49.294Z,84.53
2022-12-15T16:50:51.979Z,83.90
2022-12-15T17:00:56.256Z,86.72
2022-12-15T17:10:57.528Z,76.22
2022-12-15T17:20:58.792Z,77.50
2022-12-15T17:31:00.520Z,87.53
2022-12-15T17:41:01.865Z,69.22
2022-12-15T17:51:03.373Z,80.10
2022-12-15T18:01:04.676Z,71.75
2022-12-15T18:11:05.953Z,68.72
2022-12-15T18:21:07.259Z,69.22
2022-12-15T18:31:08.577Z,75.15
2022-12-15T18:41:09.952Z,67.68
2022-12-15T18:51:11.190Z,64.07
2022-12-15T19:01:12.632Z,64.18
2022-12-15T19:11:16.976Z,69.20
2022-12-15T19:21:37.088Z,73.28
2022-12-15T19:31:38.367Z,66.47
2022-12-15T19:41:39.677Z,64.35
2022-12-15T19:51:41.763Z,65.05
2022-12-15T20:01:43.155Z,65.85
2022-12-15T20:11:44.522Z,64.05
2022-12-15T20:21:45.827Z,63.80
2022-12-15T20:31:47.313Z,65.10
2022-12-15T20:41:48.688Z,54.30
2022-12-15T20:51:50.703Z,52.33
2022-12-15T21:01:52.647Z,58.30
2022-12-15T21:11:56.698Z,52.85
2022-12-15T21:21:57.959Z,55.03
2022-12-15T21:31:59.212Z,53.53
2022-12-15T21:42:00.530Z,52.88
2022-12-15T21:52:01.856Z,52.30
2022-12-15T22:02:03.127Z,49.03
2022-12-15T22:12:04.551Z,49.35
2022-12-15T22:22:05.810Z,51.67
2022-12-15T22:32:07.063Z,47.28
2022-12-15T22:42:08.504Z,47.05
2022-12-15T22:52:09.784Z,48.42
2022-12-15T23:02:11.129Z,45.80
2022-12-15T23:12:12.438Z,39.10
2022-12-15T23:22:13.721Z,37.35
2022-12-15T23:32:14.997Z,40.35
2022-12-15T23:42:16.217Z,42.78
2022-12-15T23:52:20.717Z,39.80
